createdAt,value
2016-03-26T00:00:11.857Z,0
2016-03-26T00:01:11.892Z,0
2016-03-26T00:02:11.941Z,0
2016-03-26T00:03:11.975Z,0
2016-03-26T00:04:12.055Z,0
2016-03-26T00:05:12.090Z,0
2016-03-26T00:06:12.155Z,0
2016-03-26T00:07:12.205Z,0
2016-03-26T00:08:12.239Z,0
2016-03-26T00:09:12.319Z,0
2016-03-26T00:10:12.353Z,0
2016-03-26T00:11:12.403Z,0
2016-03-26T00:12:12.452Z,0
2016-03-26T00:13:12.517Z,0
2016-03-26T00:14:12.552Z,0
2016-03-26T00:15:12.616Z,0
2016-03-26T00:16:12.666Z,0
2016-03-26T00:17:12.716Z,0
2016-03-26T00:18:12.765Z,0
2016-03-26T00:19:12.799Z,0
2016-03-26T00:20:12.880Z,0
2016-03-26T00:21:12.913Z,0
2016-03-26T00:22:12.948Z,0
2016-03-26T00:23:13.012Z,0
2016-03-26T00:24:13.062Z,0
2016-03-26T00:25:13.128Z,0
2016-03-26T00:26:13.162Z,0
2016-03-26T00:27:13.212Z,0
2016-03-26T00:28:13.261Z,0
2016-03-26T00:29:13.326Z,0
2016-03-26T00:30:13.359Z,0
2016-03-26T00:31:13.425Z,0
2016-03-26T00:32:13.475Z,0
2016-03-26T00:33:13.508Z,0
2016-03-26T00:34:13.573Z,0
2016-03-26T00:35:13.639Z,0
2016-03-26T00:36:13.517Z,0
2016-03-26T00:37:13.722Z,0
2016-03-26T00:38:13.789Z,0
2016-03-26T00:39:13.822Z,0
2016-03-26T00:40:13.886Z,0
2016-03-26T00:41:13.936Z,0
2016-03-26T00:42:13.959Z,0
2016-03-26T00:43:14.023Z,0
2016-03-26T00:44:14.073Z,0
2016-03-26T00:45:14.123Z,0
2016-03-26T00:46:14.173Z,0
2016-03-26T00:47:14.237Z,0
2016-03-26T00:48:14.272Z,0
2016-03-26T00:49:14.337Z,0
2016-03-26T00:50:14.370Z,0
2016-03-26T00:51:14.420Z,0
2016-03-26T00:52:14.485Z,0
2016-03-26T00:53:14.536Z,0
2016-03-26T00:54:14.569Z,0
2016-03-26T00:55:14.634Z,0
2016-03-26T00:56:14.683Z,0
2016-03-26T00:57:14.733Z,0
2016-03-26T00:58:14.783Z,0
2016-03-26T00:59:14.833Z,0
2016-03-26T01:00:14.897Z,0
2016-03-26T01:01:14.932Z,0
2016-03-26T01:02:14.966Z,0
2016-03-26T01:03:15.031Z,0
2016-03-26T01:04:15.080Z,0
2016-03-26T01:05:15.145Z,0
2016-03-26T01:06:15.195Z,0
2016-03-26T01:07:15.277Z,0
2016-03-26T01:08:15.279Z,0
2016-03-26T01:09:15.344Z,0
2016-03-26T01:10:15.410Z,0
2016-03-26T01:11:15.427Z,0
2016-03-26T01:12:15.572Z,0
2016-03-26T01:13:15.559Z,0
2016-03-26T01:14:15.593Z,0
2016-03-26T01:15:15.643Z,0
2016-03-26T01:16:15.552Z,0
2016-03-26T01:17:15.757Z,0
2016-03-26T01:18:15.634Z,0
2016-03-26T01:19:15.871Z,0
2016-03-26T01:20:15.312Z,0
2016-03-26T01:21:15.955Z,0
2016-03-26T01:22:15.989Z,0
2016-03-26T01:23:16.054Z,0
2016-03-26T01:24:16.104Z,0
2016-03-26T01:25:16.153Z,0
2016-03-26T01:26:16.187Z,0
2016-03-26T01:27:16.268Z,0
2016-03-26T01:28:16.161Z,0
2016-03-26T01:29:16.367Z,0
2016-03-26T01:30:16.401Z,0
2016-03-26T01:31:16.467Z,0
2016-03-26T01:32:16.501Z,0
2016-03-26T01:33:16.549Z,0
2016-03-26T01:34:16.600Z,0
2016-03-26T01:35:16.524Z,0
2016-03-26T01:36:16.714Z,0
2016-03-26T01:37:16.779Z,0
2016-03-26T01:38:16.813Z,0
2016-03-26T01:39:16.878Z,0
2016-03-26T01:40:16.912Z,0
2016-03-26T01:41:16.963Z,0
2016-03-26T01:42:17.027Z,0
2016-03-26T01:43:17.061Z,0
2016-03-26T01:44:17.111Z,0
2016-03-26T01:45:17.036Z,0
2016-03-26T01:46:17.226Z,0
2016-03-26T01:47:17.274Z,0
2016-03-26T01:48:17.324Z,0
2016-03-26T01:49:17.374Z,0
2016-03-26T01:50:17.424Z,0
2016-03-26T01:51:17.473Z,0
2016-03-26T01:52:17.507Z,0
2016-03-26T01:53:17.588Z,0
2016-03-26T01:54:17.637Z,0
2016-03-26T01:55:17.671Z,0
2016-03-26T01:56:17.737Z,0
2016-03-26T01:57:17.505Z,0
2016-03-26T01:58:17.820Z,0
2016-03-26T01:59:17.900Z,0
2016-03-26T02:00:17.934Z,0
2016-03-26T02:01:17.970Z,0
2016-03-26T02:02:18.050Z,0
2016-03-26T02:03:18.100Z,0
2016-03-26T02:04:18.150Z,0
2016-03-26T02:05:17.433Z,0
2016-03-26T02:06:18.248Z,0
2016-03-26T02:07:18.282Z,0
2016-03-26T02:08:18.331Z,0
2016-03-26T02:09:18.381Z,0
2016-03-26T02:10:18.430Z,0
2016-03-26T02:11:18.480Z,0
2016-03-26T02:12:18.608Z,0
2016-03-26T02:13:18.611Z,0
2016-03-26T02:14:18.644Z,0
2016-03-26T02:15:18.679Z,0
2016-03-26T02:16:18.728Z,0
2016-03-26T02:17:18.794Z,0
2016-03-26T02:18:18.843Z,0
2016-03-26T02:19:18.893Z,0
2016-03-26T02:20:18.942Z,0
2016-03-26T02:21:19.007Z,0
2016-03-26T02:22:19.041Z,0
2016-03-26T02:23:19.106Z,0
2016-03-26T02:24:19.156Z,0
2016-03-26T02:25:19.205Z,0
2016-03-26T02:26:19.239Z,0
2016-03-26T02:27:19.414Z,0
2016-03-26T02:28:19.354Z,0
2016-03-26T02:29:19.404Z,0
2016-03-26T02:30:19.298Z,0
2016-03-26T02:31:19.503Z,0
2016-03-26T02:32:19.584Z,0
2016-03-26T02:33:19.586Z,0
2016-03-26T02:34:19.667Z,0
2016-03-26T02:35:19.716Z,0
2016-03-26T02:36:19.750Z,0
2016-03-26T02:37:19.800Z,0
2016-03-26T02:38:19.849Z,0
2016-03-26T02:39:19.915Z,0
2016-03-26T02:40:19.980Z,0
2016-03-26T02:41:20.045Z,0
2016-03-26T02:42:20.079Z,0
2016-03-26T02:43:20.129Z,0
2016-03-26T02:44:20.147Z,0
2016-03-26T02:45:20.213Z,0
2016-03-26T02:46:20.262Z,0
2016-03-26T02:47:20.327Z,0
2016-03-26T02:48:20.377Z,0
2016-03-26T02:49:20.441Z,0
2016-03-26T02:50:20.476Z,0
2016-03-26T02:51:20.540Z,0
2016-03-26T02:52:20.575Z,0
2016-03-26T02:53:20.624Z,0
2016-03-26T02:54:20.659Z,0
2016-03-26T02:55:20.724Z,0
2016-03-26T02:56:20.773Z,0
2016-03-26T02:57:20.979Z,0
2016-03-26T02:58:20.888Z,0
2016-03-26T02:59:20.937Z,0
2016-03-26T03:00:20.971Z,0
2016-03-26T03:01:21.021Z,0
2016-03-26T03:02:21.102Z,0
2016-03-26T03:03:21.136Z,0
2016-03-26T03:04:21.201Z,0
2016-03-26T03:05:21.220Z,0
2016-03-26T03:06:21.300Z,0
2016-03-26T03:07:21.334Z,0
2016-03-26T03:08:21.415Z,0
2016-03-26T03:09:21.433Z,0
2016-03-26T03:10:21.483Z,0
2016-03-26T03:11:21.532Z,0
2016-03-26T03:12:21.958Z,0
2016-03-26T03:13:21.647Z,0
2016-03-26T03:14:21.680Z,0
2016-03-26T03:15:21.730Z,0
2016-03-26T03:16:21.796Z,0
2016-03-26T03:17:21.830Z,0
2016-03-26T03:18:21.894Z,0
2016-03-26T03:19:21.944Z,0
2016-03-26T03:20:21.994Z,0
2016-03-26T03:21:22.074Z,0
2016-03-26T03:22:22.093Z,0
2016-03-26T03:23:22.143Z,0
2016-03-26T03:24:22.051Z,0
2016-03-26T03:25:22.273Z,0
2016-03-26T03:26:22.338Z,0
2016-03-26T03:27:22.887Z,0
2016-03-26T03:28:22.406Z,0
2016-03-26T03:29:22.456Z,0
2016-03-26T03:30:22.521Z,0
2016-03-26T03:31:22.570Z,0
2016-03-26T03:32:22.604Z,0
2016-03-26T03:33:22.638Z,0
2016-03-26T03:34:22.688Z,0
2016-03-26T03:35:22.770Z,0
2016-03-26T03:36:22.803Z,0
2016-03-26T03:37:22.853Z,0
2016-03-26T03:38:22.918Z,0
2016-03-26T03:39:22.951Z,0
2016-03-26T03:40:22.845Z,0
2016-03-26T03:41:23.067Z,0
2016-03-26T03:42:23.085Z,0
2016-03-26T03:43:23.166Z,0
2016-03-26T03:44:23.215Z,0
2016-03-26T03:45:23.264Z,0
2016-03-26T03:46:23.314Z,0
2016-03-26T03:47:23.379Z,0
2016-03-26T03:48:23.413Z,0
2016-03-26T03:49:23.478Z,0
2016-03-26T03:50:23.528Z,0
2016-03-26T03:51:23.577Z,0
2016-03-26T03:52:23.627Z,0
2016-03-26T03:53:23.693Z,0
2016-03-26T03:54:23.710Z,0
2016-03-26T03:55:23.901Z,0
2016-03-26T03:56:23.779Z,0
2016-03-26T03:57:23.874Z,0
2016-03-26T03:58:23.894Z,0
2016-03-26T03:59:23.802Z,0
2016-03-26T04:00:23.992Z,0
2016-03-26T04:01:24.027Z,0
2016-03-26T04:02:24.107Z,0
2016-03-26T04:03:24.156Z,0
2016-03-26T04:04:24.175Z,0
2016-03-26T04:05:24.240Z,0
2016-03-26T04:06:24.289Z,0
2016-03-26T04:07:24.340Z,0
2016-03-26T04:08:24.389Z,0
2016-03-26T04:09:24.438Z,0
2016-03-26T04:10:24.520Z,0
2016-03-26T04:11:24.553Z,0
2016-03-26T04:12:24.602Z,0
2016-03-26T04:13:24.637Z,0
2016-03-26T04:14:24.717Z,0
2016-03-26T04:15:24.736Z,0
2016-03-26T04:16:24.801Z,0
2016-03-26T04:17:24.866Z,0
2016-03-26T04:18:24.900Z,0
2016-03-26T04:19:24.966Z,0
2016-03-26T04:20:25.015Z,0
2016-03-26T04:21:25.064Z,0
2016-03-26T04:22:25.129Z,0
2016-03-26T04:23:25.164Z,0
2016-03-26T04:24:25.229Z,0
2016-03-26T04:25:25.263Z,0
2016-03-26T04:26:25.312Z,0
2016-03-26T04:27:25.393Z,0
2016-03-26T04:28:25.412Z,0
2016-03-26T04:29:25.492Z,0
2016-03-26T04:30:25.510Z,0
2016-03-26T04:31:25.591Z,0
2016-03-26T04:32:25.626Z,0
2016-03-26T04:33:25.675Z,0
2016-03-26T04:34:25.740Z,0
2016-03-26T04:35:25.759Z,0
2016-03-26T04:36:25.854Z,0
2016-03-26T04:37:25.873Z,0
2016-03-26T04:38:25.954Z,0
2016-03-26T04:39:25.972Z,0
2016-03-26T04:40:26.038Z,0
2016-03-26T04:41:26.087Z,0
2016-03-26T04:42:26.152Z,0
2016-03-26T04:43:26.170Z,0
2016-03-26T04:44:26.236Z,0
2016-03-26T04:45:26.285Z,0
2016-03-26T04:46:26.339Z,0
2016-03-26T04:47:26.388Z,0
2016-03-26T04:48:26.437Z,0
2016-03-26T04:49:26.519Z,0
2016-03-26T04:50:26.521Z,0
2016-03-26T04:51:26.586Z,0
2016-03-26T04:52:26.637Z,0
2016-03-26T04:53:26.717Z,0
2016-03-26T04:54:26.735Z,0
2016-03-26T04:55:26.800Z,0
2016-03-26T04:56:26.881Z,0
2016-03-26T04:57:26.883Z,0
2016-03-26T04:58:26.965Z,0
2016-03-26T04:59:26.983Z,0
2016-03-26T05:00:27.047Z,0
2016-03-26T05:01:27.098Z,0
2016-03-26T05:02:27.131Z,0
2016-03-26T05:03:27.197Z,0
2016-03-26T05:04:26.481Z,0
2016-03-26T05:05:26.530Z,0
2016-03-26T05:06:27.361Z,0
2016-03-26T05:07:27.395Z,0
2016-03-26T05:08:26.694Z,0
2016-03-26T05:09:27.479Z,0
2016-03-26T05:10:27.544Z,0
2016-03-26T05:11:27.610Z,0
2016-03-26T05:12:27.643Z,0
2016-03-26T05:13:27.693Z,0
2016-03-26T05:14:27.743Z,0
2016-03-26T05:15:27.807Z,0
2016-03-26T05:16:27.840Z,0
2016-03-26T05:17:27.890Z,0
2016-03-26T05:18:27.956Z,0
2016-03-26T05:19:28.006Z,0
2016-03-26T05:20:28.071Z,0
2016-03-26T05:21:28.120Z,0
2016-03-26T05:22:28.154Z,0
2016-03-26T05:23:28.188Z,0
2016-03-26T05:24:28.253Z,0
2016-03-26T05:25:28.318Z,0
2016-03-26T05:26:28.368Z,0
2016-03-26T05:27:28.402Z,0
2016-03-26T05:28:28.468Z,0
2016-03-26T05:29:28.501Z,0
2016-03-26T05:30:28.550Z,0
2016-03-26T05:31:28.617Z,0
2016-03-26T05:32:28.666Z,0
2016-03-26T05:33:28.714Z,0
2016-03-26T05:34:28.749Z,0
2016-03-26T05:35:28.799Z,0
2016-03-26T05:36:28.894Z,0
2016-03-26T05:37:28.914Z,0
2016-03-26T05:38:28.978Z,0
2016-03-26T05:39:29.013Z,0
2016-03-26T05:40:29.078Z,0
2016-03-26T05:41:29.127Z,0
2016-03-26T05:42:29.176Z,0
2016-03-26T05:43:29.227Z,0
2016-03-26T05:44:29.276Z,0
2016-03-26T05:45:29.310Z,0
2016-03-26T05:46:29.375Z,0
2016-03-26T05:47:29.424Z,4
2016-03-26T05:48:29.459Z,4
2016-03-26T05:49:29.540Z,0
2016-03-26T05:50:29.589Z,0
2016-03-26T05:51:29.638Z,0
2016-03-26T05:52:29.687Z,4
2016-03-26T05:53:29.632Z,4
2016-03-26T05:54:30.559Z,4
2016-03-26T05:55:29.515Z,4
2016-03-26T05:56:29.879Z,0
2016-03-26T05:57:29.949Z,4
2016-03-26T05:58:29.967Z,4
2016-03-26T05:59:30.031Z,4
2016-03-26T06:00:30.066Z,4
2016-03-26T06:01:30.131Z,4
2016-03-26T06:02:30.181Z,4
2016-03-26T06:03:30.246Z,0
2016-03-26T06:04:30.264Z,4
2016-03-26T06:05:30.325Z,4
2016-03-26T06:06:30.381Z,4
2016-03-26T06:07:30.394Z,4
2016-03-26T06:08:30.451Z,8
2016-03-26T06:09:30.508Z,8
2016-03-26T06:10:30.537Z,4
2016-03-26T06:11:30.584Z,4
2016-03-26T06:12:30.645Z,4
2016-03-26T06:13:30.692Z,8
2016-03-26T06:14:30.738Z,4
2016-03-26T06:15:30.802Z,4
2016-03-26T06:16:30.834Z,4
2016-03-26T06:17:30.883Z,4
2016-03-26T06:18:30.947Z,8
2016-03-26T06:19:31.012Z,8
2016-03-26T06:20:31.029Z,8
2016-03-26T06:21:31.078Z,4
2016-03-26T06:22:31.143Z,8
2016-03-26T06:23:31.176Z,8
2016-03-26T06:24:31.241Z,4
2016-03-26T06:25:31.290Z,8
2016-03-26T06:26:31.340Z,8
2016-03-26T06:27:31.375Z,4
2016-03-26T06:28:31.487Z,4
2016-03-26T06:29:31.489Z,8
2016-03-26T06:30:31.538Z,8
2016-03-26T06:31:31.589Z,8
2016-03-26T06:32:31.638Z,8
2016-03-26T06:33:30.952Z,8
2016-03-26T06:34:31.736Z,8
2016-03-26T06:35:31.786Z,12
2016-03-26T06:36:31.836Z,12
2016-03-26T06:37:31.916Z,12
2016-03-26T06:38:31.950Z,12
2016-03-26T06:39:32.015Z,12
2016-03-26T06:40:32.049Z,12
2016-03-26T06:41:31.958Z,12
2016-03-26T06:42:32.165Z,12
2016-03-26T06:43:32.198Z,12
2016-03-26T06:44:32.280Z,16
2016-03-26T06:45:32.313Z,16
2016-03-26T06:46:32.362Z,180
2016-03-26T06:47:32.429Z,448
2016-03-26T06:48:32.477Z,452
2016-03-26T06:49:32.542Z,472
2016-03-26T06:50:32.562Z,488
2016-03-26T06:51:32.610Z,500
2016-03-26T06:52:32.660Z,532
2016-03-26T06:53:32.725Z,524
2016-03-26T06:54:32.759Z,576
2016-03-26T06:55:32.840Z,612
2016-03-26T06:56:32.873Z,648
2016-03-26T06:57:32.923Z,668
2016-03-26T06:58:33.003Z,708
2016-03-26T06:59:33.023Z,672
2016-03-26T07:00:33.072Z,580
2016-03-26T07:01:33.122Z,428
2016-03-26T07:02:33.172Z,660
2016-03-26T07:03:33.236Z,248
2016-03-26T07:04:33.286Z,88
2016-03-26T07:05:33.336Z,76
2016-03-26T07:06:33.354Z,36
2016-03-26T07:07:33.528Z,152
2016-03-26T07:08:33.469Z,132
2016-03-26T07:09:33.519Z,212
2016-03-26T07:10:33.599Z,240
2016-03-26T07:11:33.632Z,748
2016-03-26T07:12:33.667Z,1064
2016-03-26T07:13:33.732Z,952
2016-03-26T07:14:33.750Z,1076
2016-03-26T07:15:33.816Z,1076
2016-03-26T07:16:33.881Z,1104
2016-03-26T07:17:33.915Z,1376
2016-03-26T07:18:33.965Z,1408
2016-03-26T07:19:34.014Z,1588
2016-03-26T07:20:34.079Z,1576
2016-03-26T07:21:34.113Z,1564
2016-03-26T07:22:34.193Z,1440
2016-03-26T07:23:34.228Z,1448
2016-03-26T07:24:34.278Z,1584
2016-03-26T07:25:34.312Z,1752
2016-03-26T07:26:34.376Z,1848
2016-03-26T07:27:34.441Z,1744
2016-03-26T07:28:34.476Z,1636
2016-03-26T07:29:34.541Z,1488
2016-03-26T07:30:34.589Z,1464
2016-03-26T07:31:34.640Z,1496
2016-03-26T07:32:34.689Z,1280
2016-03-26T07:33:34.739Z,1316
2016-03-26T07:34:34.773Z,1256
2016-03-26T07:35:34.838Z,1264
2016-03-26T07:36:34.903Z,1244
2016-03-26T07:37:34.938Z,1280
2016-03-26T07:38:35.002Z,1280
2016-03-26T07:39:35.021Z,1428
2016-03-26T07:40:35.071Z,1252
2016-03-26T07:41:35.136Z,1564
2016-03-26T07:42:35.201Z,1292
2016-03-26T07:43:35.219Z,1220
2016-03-26T07:44:35.300Z,1272
2016-03-26T07:45:35.349Z,1560
2016-03-26T07:46:35.398Z,1536
2016-03-26T07:47:35.449Z,1236
2016-03-26T07:48:35.482Z,1064
2016-03-26T07:49:35.548Z,936
2016-03-26T07:50:35.598Z,1040
2016-03-26T07:51:35.678Z,524
2016-03-26T07:52:35.681Z,224
2016-03-26T07:53:35.746Z,892
2016-03-26T07:54:35.826Z,572
2016-03-26T07:55:35.876Z,756
2016-03-26T07:56:35.910Z,696
2016-03-26T07:57:35.945Z,460
2016-03-26T07:58:35.995Z,976
2016-03-26T07:59:36.075Z,972
2016-03-26T08:00:36.109Z,1064
2016-03-26T08:01:36.173Z,1024
2016-03-26T08:02:36.222Z,916
2016-03-26T08:03:36.289Z,960
2016-03-26T08:04:36.322Z,1060
2016-03-26T08:05:36.356Z,936
2016-03-26T08:06:36.422Z,976
2016-03-26T08:07:36.455Z,928
2016-03-26T08:08:36.521Z,952
2016-03-26T08:09:36.602Z,904
2016-03-26T08:10:36.619Z,844
2016-03-26T08:11:36.685Z,844
2016-03-26T08:12:36.735Z,912
2016-03-26T08:13:36.768Z,904
2016-03-26T08:14:36.849Z,836
2016-03-26T08:15:36.899Z,936
2016-03-26T08:16:36.918Z,888
2016-03-26T08:17:37.029Z,908
2016-03-26T08:18:37.047Z,820
2016-03-26T08:19:37.082Z,808
2016-03-26T08:20:37.146Z,804
2016-03-26T08:21:37.181Z,812
2016-03-26T08:22:37.230Z,740
2016-03-26T08:23:37.279Z,756
2016-03-26T08:24:37.329Z,716
2016-03-26T08:25:37.395Z,800
2016-03-26T08:26:37.445Z,336
2016-03-26T08:27:37.493Z,764
2016-03-26T08:28:37.543Z,412
2016-03-26T08:29:37.593Z,856
2016-03-26T08:30:37.642Z,856
2016-03-26T08:31:37.692Z,788
2016-03-26T08:32:37.742Z,764
2016-03-26T08:33:37.791Z,772
2016-03-26T08:34:37.856Z,720
2016-03-26T08:35:37.921Z,752
2016-03-26T08:36:37.940Z,828
2016-03-26T08:37:37.989Z,756
2016-03-26T08:38:38.054Z,276
2016-03-26T08:39:38.105Z,740
2016-03-26T08:40:38.001Z,756
2016-03-26T08:41:38.192Z,848
2016-03-26T08:42:38.257Z,744
2016-03-26T08:43:38.306Z,720
2016-03-26T08:44:38.371Z,784
2016-03-26T08:45:38.420Z,700
2016-03-26T08:46:38.470Z,676
2016-03-26T08:47:38.520Z,716
2016-03-26T08:48:38.569Z,704
2016-03-26T08:49:38.620Z,680
2016-03-26T08:50:38.653Z,692
2016-03-26T08:51:38.734Z,632
2016-03-26T08:52:38.767Z,688
2016-03-26T08:53:38.817Z,648
2016-03-26T08:54:38.867Z,624
2016-03-26T08:55:38.916Z,620
2016-03-26T08:56:38.983Z,600
2016-03-26T08:57:39.031Z,636
2016-03-26T08:58:39.081Z,580
2016-03-26T08:59:39.147Z,660
2016-03-26T09:00:39.196Z,556
2016-03-26T09:01:39.245Z,596
2016-03-26T09:02:39.310Z,568
2016-03-26T09:03:39.329Z,552
2016-03-26T09:04:39.394Z,568
2016-03-26T09:05:39.443Z,632
2016-03-26T09:06:39.509Z,576
2016-03-26T09:07:39.542Z,628
2016-03-26T09:08:39.608Z,544
2016-03-26T09:09:39.642Z,580
2016-03-26T09:10:39.707Z,540
2016-03-26T09:11:39.757Z,512
2016-03-26T09:12:39.806Z,524
2016-03-26T09:13:39.856Z,500
2016-03-26T09:14:39.905Z,536
2016-03-26T09:15:40.001Z,480
2016-03-26T09:16:40.004Z,480
2016-03-26T09:17:40.054Z,476
2016-03-26T09:18:40.103Z,480
2016-03-26T09:19:40.169Z,468
2016-03-26T09:20:40.218Z,456
2016-03-26T09:21:40.267Z,444
2016-03-26T09:22:40.333Z,444
2016-03-26T09:23:40.383Z,456
2016-03-26T09:24:40.416Z,444
2016-03-26T09:25:40.481Z,436
2016-03-26T09:26:40.547Z,440
2016-03-26T09:27:40.580Z,464
2016-03-26T09:28:41.052Z,396
2016-03-26T09:29:40.664Z,428
2016-03-26T09:30:40.729Z,404
2016-03-26T09:31:40.763Z,416
2016-03-26T09:32:40.813Z,420
2016-03-26T09:33:40.878Z,400
2016-03-26T09:34:40.959Z,412
2016-03-26T09:35:40.977Z,404
2016-03-26T09:36:41.027Z,420
2016-03-26T09:37:41.092Z,400
2016-03-26T09:38:41.126Z,424
2016-03-26T09:39:41.176Z,416
2016-03-26T09:40:41.256Z,396
2016-03-26T09:41:41.306Z,428
2016-03-26T09:42:41.340Z,356
2016-03-26T09:43:41.514Z,392
2016-03-26T09:44:41.298Z,364
2016-03-26T09:45:41.488Z,352
2016-03-26T09:46:41.537Z,364
2016-03-26T09:47:41.619Z,344
2016-03-26T09:48:41.636Z,384
2016-03-26T09:49:41.686Z,404
2016-03-26T09:50:41.752Z,336
2016-03-26T09:51:41.801Z,332
2016-03-26T09:52:41.850Z,324
2016-03-26T09:53:41.900Z,324
2016-03-26T09:54:41.950Z,332
2016-03-26T09:55:42.016Z,324
2016-03-26T09:56:42.049Z,324
2016-03-26T09:57:42.114Z,320
2016-03-26T09:58:42.399Z,320
2016-03-26T09:59:42.197Z,320
2016-03-26T10:00:42.263Z,316
2016-03-26T10:01:42.313Z,316
2016-03-26T10:02:42.362Z,312
2016-03-26T10:03:42.413Z,308
2016-03-26T10:04:42.461Z,308
2016-03-26T10:05:42.510Z,300
2016-03-26T10:06:42.576Z,304
2016-03-26T10:07:42.626Z,300
2016-03-26T10:08:42.660Z,296
2016-03-26T10:09:42.709Z,292
2016-03-26T10:10:42.774Z,288
2016-03-26T10:11:42.823Z,288
2016-03-26T10:12:42.874Z,288
2016-03-26T10:13:43.017Z,292
2016-03-26T10:14:42.973Z,284
2016-03-26T10:15:43.038Z,276
2016-03-26T10:16:43.088Z,276
2016-03-26T10:17:43.137Z,268
2016-03-26T10:18:43.186Z,272
2016-03-26T10:19:43.251Z,268
2016-03-26T10:20:43.286Z,268
2016-03-26T10:21:43.336Z,268
2016-03-26T10:22:43.400Z,268
2016-03-26T10:23:43.434Z,260
2016-03-26T10:24:43.500Z,256
2016-03-26T10:25:43.533Z,256
2016-03-26T10:26:43.614Z,252
2016-03-26T10:27:43.648Z,252
2016-03-26T10:28:43.683Z,252
2016-03-26T10:29:43.778Z,248
2016-03-26T10:30:43.813Z,244
2016-03-26T10:31:43.830Z,240
2016-03-26T10:32:43.927Z,240
2016-03-26T10:33:43.930Z,240
2016-03-26T10:34:44.011Z,240
2016-03-26T10:35:44.107Z,240
2016-03-26T10:36:44.110Z,240
2016-03-26T10:37:44.175Z,240
2016-03-26T10:38:44.209Z,240
2016-03-26T10:39:44.259Z,240
2016-03-26T10:40:44.293Z,236
2016-03-26T10:41:44.358Z,216
2016-03-26T10:42:44.396Z,232
2016-03-26T10:43:44.478Z,232
2016-03-26T10:44:44.511Z,232
2016-03-26T10:45:44.576Z,228
2016-03-26T10:46:44.611Z,228
2016-03-26T10:47:44.660Z,224
2016-03-26T10:48:44.725Z,228
2016-03-26T10:49:44.790Z,220
2016-03-26T10:50:44.839Z,220
2016-03-26T10:51:44.875Z,220
2016-03-26T10:52:44.939Z,220
2016-03-26T10:53:44.958Z,216
2016-03-26T10:54:45.038Z,212
2016-03-26T10:55:45.103Z,216
2016-03-26T10:56:45.169Z,216
2016-03-26T10:57:45.172Z,212
2016-03-26T10:58:45.236Z,204
2016-03-26T10:59:45.302Z,208
2016-03-26T11:00:45.335Z,208
2016-03-26T11:01:45.369Z,216
2016-03-26T11:02:45.435Z,212
2016-03-26T11:03:45.484Z,216
2016-03-26T11:04:45.534Z,212
2016-03-26T11:05:45.583Z,208
2016-03-26T11:06:45.633Z,208
2016-03-26T11:07:45.682Z,204
2016-03-26T11:08:45.732Z,188
2016-03-26T11:09:45.798Z,204
2016-03-26T11:10:45.847Z,196
2016-03-26T11:11:45.928Z,204
2016-03-26T11:12:45.946Z,200
2016-03-26T11:13:46.011Z,204
2016-03-26T11:14:46.061Z,204
2016-03-26T11:15:46.095Z,204
2016-03-26T11:16:46.160Z,200
2016-03-26T11:17:46.194Z,200
2016-03-26T11:18:46.275Z,196
2016-03-26T11:19:46.309Z,196
2016-03-26T11:20:46.358Z,196
2016-03-26T11:21:46.423Z,196
2016-03-26T11:22:46.458Z,196
2016-03-26T11:23:46.506Z,192
2016-03-26T11:24:46.572Z,192
2016-03-26T11:25:46.606Z,192
2016-03-26T11:26:46.671Z,192
2016-03-26T11:27:46.721Z,188
2016-03-26T11:28:46.786Z,192
2016-03-26T11:29:46.820Z,192
2016-03-26T11:30:46.885Z,188
2016-03-26T11:31:46.919Z,188
2016-03-26T11:32:46.968Z,192
2016-03-26T11:33:47.033Z,188
2016-03-26T11:34:47.083Z,192
2016-03-26T11:35:47.133Z,188
2016-03-26T11:36:47.182Z,188
2016-03-26T11:37:47.232Z,188
2016-03-26T11:38:47.296Z,188
2016-03-26T11:39:47.347Z,184
2016-03-26T11:40:47.381Z,184
2016-03-26T11:41:47.430Z,184
2016-03-26T11:42:47.495Z,180
2016-03-26T11:43:47.545Z,184
2016-03-26T11:44:47.578Z,184
2016-03-26T11:45:47.660Z,180
2016-03-26T11:46:47.709Z,180
2016-03-26T11:47:47.743Z,180
2016-03-26T11:48:47.808Z,180
2016-03-26T11:49:47.859Z,176
2016-03-26T11:50:47.908Z,172
2016-03-26T11:51:47.957Z,172
2016-03-26T11:52:48.022Z,176
2016-03-26T11:53:48.072Z,172
2016-03-26T11:54:48.105Z,172
2016-03-26T11:55:48.140Z,172
2016-03-26T11:56:48.220Z,172
2016-03-26T11:57:48.270Z,172
2016-03-26T11:58:48.304Z,168
2016-03-26T11:59:48.370Z,168
2016-03-26T12:00:48.419Z,168
2016-03-26T12:01:48.469Z,168
2016-03-26T12:02:48.502Z,160
2016-03-26T12:03:48.552Z,164
2016-03-26T12:04:48.616Z,160
2016-03-26T12:05:48.666Z,156
2016-03-26T12:06:48.716Z,156
2016-03-26T12:07:48.797Z,156
2016-03-26T12:08:48.831Z,160
2016-03-26T12:09:48.865Z,156
2016-03-26T12:10:48.946Z,152
2016-03-26T12:11:48.996Z,152
2016-03-26T12:12:49.029Z,156
2016-03-26T12:13:49.078Z,152
2016-03-26T12:14:49.128Z,152
2016-03-26T12:15:49.193Z,156
2016-03-26T12:16:49.243Z,152
2016-03-26T12:17:49.277Z,156
2016-03-26T12:18:49.342Z,156
2016-03-26T12:19:49.392Z,152
2016-03-26T12:20:49.442Z,152
2016-03-26T12:21:49.523Z,152
2016-03-26T12:22:49.400Z,148
2016-03-26T12:23:49.606Z,148
2016-03-26T12:24:49.639Z,148
2016-03-26T12:25:49.705Z,144
2016-03-26T12:26:49.754Z,144
2016-03-26T12:27:49.804Z,140
2016-03-26T12:28:49.869Z,144
2016-03-26T12:29:49.888Z,140
2016-03-26T12:30:49.952Z,144
2016-03-26T12:31:49.987Z,140
2016-03-26T12:32:50.066Z,140
2016-03-26T12:33:50.117Z,140
2016-03-26T12:34:50.166Z,136
2016-03-26T12:35:50.185Z,140
2016-03-26T12:36:50.265Z,136
2016-03-26T12:37:50.316Z,132
2016-03-26T12:38:50.365Z,136
2016-03-26T12:39:50.415Z,132
2016-03-26T12:40:50.479Z,132
2016-03-26T12:41:50.513Z,132
2016-03-26T12:42:50.563Z,132
2016-03-26T12:43:50.597Z,124
2016-03-26T12:44:50.693Z,128
2016-03-26T12:45:50.743Z,144
2016-03-26T12:46:50.793Z,140
2016-03-26T12:47:50.842Z,148
2016-03-26T12:48:50.892Z,148
2016-03-26T12:49:50.926Z,148
2016-03-26T12:50:51.022Z,144
2016-03-26T12:51:51.056Z,144
2016-03-26T12:52:51.106Z,144
2016-03-26T12:53:51.139Z,144
2016-03-26T12:54:51.189Z,140
2016-03-26T12:55:51.254Z,140
2016-03-26T12:56:51.147Z,140
2016-03-26T12:57:51.353Z,140
2016-03-26T12:58:51.403Z,136
2016-03-26T12:59:51.437Z,136
2016-03-26T13:00:51.487Z,136
2016-03-26T13:01:51.552Z,136
2016-03-26T13:02:51.601Z,136
2016-03-26T13:03:51.666Z,136
2016-03-26T13:04:51.732Z,136
2016-03-26T13:05:51.766Z,132
2016-03-26T13:06:51.831Z,128
2016-03-26T13:07:51.880Z,132
2016-03-26T13:08:51.930Z,132
2016-03-26T13:09:51.979Z,132
2016-03-26T13:10:52.030Z,132
2016-03-26T13:11:52.093Z,132
2016-03-26T13:12:52.113Z,128
2016-03-26T13:13:52.162Z,128
2016-03-26T13:14:52.196Z,128
2016-03-26T13:15:52.261Z,128
2016-03-26T13:16:52.295Z,128
2016-03-26T13:17:52.360Z,124
2016-03-26T13:18:52.410Z,128
2016-03-26T13:19:52.475Z,128
2016-03-26T13:20:52.525Z,124
2016-03-26T13:21:52.574Z,124
2016-03-26T13:22:52.623Z,124
2016-03-26T13:23:52.673Z,124
2016-03-26T13:24:52.707Z,128
2016-03-26T13:25:52.772Z,128
2016-03-26T13:26:52.822Z,124
2016-03-26T13:27:52.872Z,128
2016-03-26T13:28:52.922Z,128
2016-03-26T13:29:52.986Z,128
2016-03-26T13:30:53.020Z,128
2016-03-26T13:31:53.086Z,128
2016-03-26T13:32:53.119Z,124
2016-03-26T13:33:53.185Z,128
2016-03-26T13:34:53.233Z,128
2016-03-26T13:35:53.316Z,128
2016-03-26T13:36:53.349Z,132
2016-03-26T13:37:53.399Z,128
2016-03-26T13:38:53.432Z,104
2016-03-26T13:39:53.482Z,108
2016-03-26T13:40:53.546Z,112
2016-03-26T13:41:53.596Z,116
2016-03-26T13:42:53.630Z,112
2016-03-26T13:43:53.712Z,116
2016-03-26T13:44:53.745Z,116
2016-03-26T13:45:53.810Z,116
2016-03-26T13:46:53.845Z,112
2016-03-26T13:47:53.894Z,116
2016-03-26T13:48:53.959Z,116
2016-03-26T13:49:54.009Z,116
2016-03-26T13:50:54.043Z,116
2016-03-26T13:51:54.108Z,116
2016-03-26T13:52:54.013Z,116
2016-03-26T13:53:54.235Z,92
2016-03-26T13:54:54.269Z,112
2016-03-26T13:55:54.333Z,64
2016-03-26T13:56:54.368Z,68
2016-03-26T13:57:54.418Z,124
2016-03-26T13:58:54.482Z,124
2016-03-26T13:59:54.532Z,124
2016-03-26T14:00:54.596Z,124
2016-03-26T14:01:54.506Z,128
2016-03-26T14:02:54.681Z,132
2016-03-26T14:03:54.590Z,128
2016-03-26T14:04:54.779Z,136
2016-03-26T14:05:54.829Z,136
2016-03-26T14:06:54.941Z,132
2016-03-26T14:07:54.929Z,136
2016-03-26T14:08:54.978Z,136
2016-03-26T14:09:55.028Z,140
2016-03-26T14:10:55.108Z,136
2016-03-26T14:11:55.142Z,140
2016-03-26T14:12:55.207Z,140